Time;durP1;ratioP1;P1;durP2;ratioP2;P2;SDS_P1;SDS_P2;PMS_P1;PMS_P2;Temp;Humidity;BMP_temperature;BMP_pressure;BME280_temperature;BME280_humidity;BME280_pressure;Samples;Min_cycle;Max_cycle;Signal;HPM_P1;HPM_P2
2022/09/12 00:01:04;;;;;;;3.92;1.85;;;16.40;70.70;;;;;;5018540;28;20033;-76
2022/09/12 00:03:31;;;;;;;2.55;1.80;;;16.40;70.70;;;;;;5026454;28;20026;-77
2022/09/12 00:05:57;;;;;;;3.50;1.70;;;16.30;70.70;;;;;;5028919;28;20029;-77
2022/09/12 00:08:24;;;;;;;2.22;1.15;;;16.30;70.50;;;;;;5028117;28;20028;-78
2022/09/12 00:10:50;;;;;;;6.95;2.15;;;16.30;70.50;;;;;;5022397;28;20021;-79
2022/09/12 00:13:16;;;;;;;2.30;1.50;;;16.30;70.50;;;;;;5024123;28;20049;-78
2022/09/12 00:15:44;;;;;;;4.25;1.92;;;16.30;70.50;;;;;;5029805;28;20472;-76
2022/09/12 00:18:15;;;;;;;2.72;1.60;;;16.30;70.80;;;;;;5028487;28;20099;-76
2022/09/12 00:20:46;;;;;;;3.70;1.58;;;16.20;71.30;;;;;;5021790;28;20357;-76
2022/09/12 00:23:13;;;;;;;2.58;1.58;;;16.20;71.20;;;;;;5024990;28;20103;-77
2022/09/12 00:25:45;;;;;;;3.75;1.85;;;16.30;71.30;;;;;;5027379;28;20067;-76
2022/09/12 00:28:13;;;;;;;4.10;1.23;;;16.20;71.20;;;;;;5027321;28;20105;-77
2022/09/12 00:30:48;;;;;;;3.17;1.70;;;16.20;71.30;;;;;;5024441;28;20115;-76
2022/09/12 00:33:16;;;;;;;3.35;2.00;;;16.10;71.20;;;;;;5027096;28;20029;-77
2022/09/12 00:35:44;;;;;;;14.15;1.92;;;16.20;71.70;;;;;;5025953;28;20460;-76
2022/09/12 00:38:12;;;;;;;10.02;2.58;;;16.20;72.00;;;;;;5026295;28;20032;-77
2022/09/12 00:40:39;;;;;;;5.55;2.63;;;16.20;72.10;;;;;;5026209;28;20530;-73
2022/09/12 00:43:09;;;;;;;9.50;2.40;;;16.20;72.50;;;;;;5021801;28;20489;-76
2022/09/12 00:45:36;;;;;;;5.18;1.60;;;16.10;72.50;;;;;;5029485;28;20491;-76
2022/09/12 00:48:04;;;;;;;9.13;1.77;;;16.10;72.10;;;;;;5025733;28;20109;-76
2022/09/12 00:50:32;;;;;;;4.35;2.03;;;16.10;71.70;;;;;;5027615;28;20527;-76
2022/09/12 00:53:03;;;;;;;5.40;2.17;;;16.10;71.60;;;;;;5024106;28;20037;-75
2022/09/12 00:55:42;;;;;;;4.35;1.52;;;16.00;71.40;;;;;;5024197;28;20026;-75
2022/09/12 00:58:36;;;;;;;6.63;2.30;;;16.00;71.30;;;;;;5025406;28;20712;-77
2022/09/12 01:01:03;;;;;;;4.45;1.92;;;16.10;72.00;;;;;;5028231;28;20041;-76
2022/09/12 01:03:30;;;;;;;6.40;2.45;;;16.00;71.30;;;;;;5026362;28;20034;-76
2022/09/12 01:06:09;;;;;;;5.45;1.85;;;16.00;71.10;;;;;;5025869;28;20029;-75
2022/09/12 01:08:37;;;;;;;2.88;1.98;;;16.00;71.10;;;;;;5023980;28;20025;-77
2022/09/12 01:11:06;;;;;;;5.18;2.30;;;16.00;71.00;;;;;;5026141;28;20029;-78
2022/09/12 01:13:34;;;;;;;5.88;1.85;;;16.00;71.00;;;;;;5022485;28;20030;-78
2022/09/12 01:16:04;;;;;;;4.57;2.17;;;16.00;71.00;;;;;;5026911;28;20080;-79
2022/09/12 01:18:37;;;;;;;5.30;2.28;;;16.00;71.10;;;;;;5025520;28;20091;-78
2022/09/12 01:21:34;;;;;;;4.57;1.98;;;15.90;71.20;;;;;;5022937;28;20384;-78
2022/09/12 01:24:11;;;;;;;4.68;1.90;;;15.90;71.40;;;;;;5025797;28;20028;-77
2022/09/12 01:26:47;;;;;;;3.22;2.22;;;15.90;71.50;;;;;;5025702;28;20033;-79
2022/09/12 01:29:41;;;;;;;8.13;2.30;;;15.90;71.50;;;;;;5025917;28;20045;-78
2022/09/12 01:32:22;;;;;;;6.18;2.97;;;15.90;71.60;;;;;;5025059;28;20422;-77
2022/09/12 01:35:01;;;;;;;9.63;1.67;;;15.80;71.50;;;;;;5026519;28;20030;-78
2022/09/12 01:37:59;;;;;;;6.30;2.28;;;15.80;71.60;;;;;;5023153;28;20047;-75
2022/09/12 01:40:42;;;;;;;6.93;2.67;;;15.90;71.90;;;;;;5024704;28;20042;-74
2022/09/12 01:43:16;;;;;;;3.13;2.10;;;15.80;72.20;;;;;;5024327;28;20048;-75
2022/09/12 01:46:07;;;;;;;3.83;1.95;;;15.80;71.20;;;;;;5022778;28;20495;-74
2022/09/12 01:48:39;;;;;;;5.05;2.35;;;15.80;71.10;;;;;;5020793;28;20527;-76
2022/09/12 01:51:15;;;;;;;6.55;2.88;;;15.80;70.90;;;;;;5019928;28;20014;-75
2022/09/12 01:53:47;;;;;;;8.35;2.15;;;15.70;70.80;;;;;;5026356;28;20072;-73
2022/09/12 01:56:20;;;;;;;6.38;2.15;;;15.70;70.80;;;;;;5023230;28;20028;-77
2022/09/12 01:59:00;;;;;;;5.25;3.08;;;15.70;70.60;;;;;;5023616;28;20025;-77
2022/09/12 02:01:38;;;;;;;5.93;3.75;;;15.70;70.50;;;;;;5019336;28;20029;-76
2022/09/12 02:04:15;;;;;;;4.43;2.03;;;15.70;70.40;;;;;;5019364;28;20371;-74
2022/09/12 02:06:53;;;;;;;5.20;2.53;;;15.70;70.40;;;;;;5028055;28;20064;-75
2022/09/12 02:09:25;;;;;;;5.75;2.25;;;15.60;70.30;;;;;;5019558;28;20022;-75
2022/09/12 02:11:57;;;;;;;9.82;3.75;;;15.70;70.50;;;;;;5025830;28;20446;-74
2022/09/12 02:14:31;;;;;;;5.22;1.95;;;15.60;70.40;;;;;;5026919;28;20075;-76
2022/09/12 02:17:12;;;;;;;6.93;3.08;;;15.60;70.30;;;;;;5022494;28;20392;-77
2022/09/12 02:19:53;;;;;;;6.57;1.98;;;15.60;70.20;;;;;;5025470;28;20043;-76
2022/09/12 02:22:24;;;;;;;6.03;3.03;;;15.50;70.00;;;;;;5018612;28;20108;-78
2022/09/12 02:24:56;;;;;;;4.78;2.33;;;15.50;70.10;;;;;;5026618;28;20026;-77
2022/09/12 02:27:25;;;;;;;4.53;2.17;;;15.50;70.20;;;;;;5024491;28;20021;-78
2022/09/12 02:29:52;;;;;;;3.80;2.47;;;15.40;70.30;;;;;;5026197;28;20033;-78
2022/09/12 02:32:37;;;;;;;5.15;2.70;;;15.50;70.40;;;;;;5027038;28;20022;-75
2022/09/12 02:35:08;;;;;;;7.22;2.13;;;15.50;70.50;;;;;;5020550;28;20101;-76
2022/09/12 02:38:00;;;;;;;5.57;2.13;;;15.50;70.50;;;;;;5024241;28;20100;-77
2022/09/12 02:40:28;;;;;;;7.55;2.97;;;15.40;70.40;;;;;;5010308;28;20051;-78
2022/09/12 02:42:55;;;;;;;2.95;2.00;;;15.40;70.50;;;;;;5027325;28;20081;-76
2022/09/12 02:45:22;;;;;;;5.97;2.42;;;15.40;70.40;;;;;;5024011;28;20554;-78
2022/09/12 02:48:08;;;;;;;8.25;2.47;;;15.40;70.40;;;;;;5022074;28;20124;-77
2022/09/12 02:50:36;;;;;;;6.20;2.63;;;15.40;71.20;;;;;;5022863;28;20033;-77
2022/09/12 02:53:03;;;;;;;13.05;2.40;;;15.40;70.40;;;;;;5025531;28;20091;-78
2022/09/12 02:55:33;;;;;;;5.82;2.63;;;15.40;70.20;;;;;;5025424;28;20040;-77
2022/09/12 02:58:06;;;;;;;4.10;1.65;;;15.30;70.10;;;;;;5029728;28;20502;-77
2022/09/12 03:00:48;;;;;;;3.50;1.63;;;15.30;70.00;;;;;;5029720;28;20553;-77
2022/09/12 03:03:28;;;;;;;5.00;1.65;;;15.30;70.60;;;;;;5027564;28;20022;-77
2022/09/12 03:06:00;;;;;;;7.45;2.70;;;15.30;69.90;;;;;;5025393;28;20053;-77
2022/09/12 03:08:45;;;;;;;6.90;2.17;;;15.30;69.80;;;;;;5024511;28;20444;-78
2022/09/12 03:11:51;;;;;;;7.30;3.10;;;15.30;70.20;;;;;;5029632;28;20499;-73
2022/09/12 03:14:31;;;;;;;7.22;1.80;;;15.30;70.20;;;;;;5027720;28;20553;-79
2022/09/12 03:17:36;;;;;;;5.60;2.17;;;15.30;69.90;;;;;;5025004;28;20068;-78
2022/09/12 03:20:21;;;;;;;6.75;2.95;;;15.20;69.50;;;;;;5019077;28;20123;-73
2022/09/12 03:23:03;;;;;;;4.80;2.55;;;15.20;69.30;;;;;;5022383;28;20113;-78
2022/09/12 03:25:37;;;;;;;4.55;2.08;;;15.20;69.30;;;;;;5027964;28;20029;-79
2022/09/12 03:28:14;;;;;;;6.22;3.20;;;15.10;69.20;;;;;;5022598;28;20033;-77
2022/09/12 03:30:46;;;;;;;11.85;2.53;;;15.10;69.10;;;;;;5025629;28;20484;-73
2022/09/12 03:33:19;;;;;;;8.88;2.10;;;15.10;69.00;;;;;;5027995;28;20022;-78
2022/09/12 03:35:46;;;;;;;7.68;3.00;;;15.10;68.90;;;;;;5027708;28;20044;-74
2022/09/12 03:38:13;;;;;;;4.28;1.50;;;15.10;68.90;;;;;;5028870;28;20383;-77
2022/09/12 03:40:40;;;;;;;3.70;1.50;;;15.10;69.10;;;;;;5028084;28;20061;-77
2022/09/12 03:43:08;;;;;;;6.50;1.77;;;15.00;69.50;;;;;;5027989;28;20041;-78
2022/09/12 03:45:35;;;;;;;7.03;1.08;;;15.00;69.70;;;;;;5028080;28;20045;-76
2022/09/12 03:48:02;;;;;;;5.03;2.70;;;15.00;69.80;;;;;;5028687;28;20033;-77
2022/09/12 03:50:31;;;;;;;8.32;3.80;;;15.00;69.70;;;;;;5024845;28;20037;-77
2022/09/12 03:53:02;;;;;;;23.88;16.00;;;14.90;69.30;;;;;;5028866;28;20076;-78
2022/09/12 03:55:28;;;;;;;28.35;21.38;;;14.90;69.10;;;;;;5026994;28;20018;-78
2022/09/12 03:57:55;;;;;;;26.10;19.48;;;14.90;69.20;;;;;;5027483;28;20017;-78
2022/09/12 04:00:22;;;;;;;18.65;11.82;;;14.90;69.20;;;;;;5025708;28;20037;-79
2022/09/12 06:15:53;;;;;;;8.13;2.60;;;14.10;74.60;;;;;;5125917;27;20120;-69
2022/09/12 06:18:20;;;;;;;10.32;2.53;;;14.40;76.10;;;;;;5098036;28;20095;-70
2022/09/12 06:20:46;;;;;;;13.98;3.38;;;14.40;75.90;;;;;;5091865;28;20551;-72
2022/09/12 06:23:13;;;;;;;9.50;3.70;;;14.50;75.80;;;;;;5096446;28;20054;-72
2022/09/12 06:25:47;;;;;;;12.85;4.35;;;14.50;75.70;;;;;;5098098;28;20051;-70
2022/09/12 06:28:13;;;;;;;8.25;2.90;;;14.60;75.60;;;;;;5098589;28;20568;-71
2022/09/12 06:30:39;;;;;;;6.28;2.03;;;14.70;75.60;;;;;;5095379;28;20076;-71
2022/09/12 06:33:06;;;;;;;8.65;2.55;;;14.70;75.50;;;;;;5096603;28;20528;-70
2022/09/12 06:35:37;;;;;;;6.53;2.40;;;14.80;76.20;;;;;;5093832;28;20027;-73
2022/09/12 06:38:04;;;;;;;4.65;2.88;;;14.80;75.50;;;;;;5093341;28;20026;-71
2022/09/12 06:40:31;;;;;;;8.57;2.28;;;14.90;75.50;;;;;;5092469;28;20574;-70
2022/09/12 06:42:58;;;;;;;4.35;2.65;;;14.90;75.50;;;;;;5094979;28;20379;-71
2022/09/12 06:45:25;;;;;;;5.68;1.90;;;14.90;75.60;;;;;;5094761;28;20035;-70
2022/09/12 06:47:51;;;;;;;7.53;2.65;;;15.00;75.80;;;;;;5097580;28;20477;-70
2022/09/12 06:50:18;;;;;;;7.68;2.38;;;15.00;76.20;;;;;;5095848;28;20034;-70
2022/09/12 06:52:44;;;;;;;11.45;2.28;;;15.10;76.50;;;;;;5095970;28;20028;-71
2022/09/12 06:55:11;;;;;;;6.68;2.47;;;15.10;76.70;;;;;;5097804;28;20036;-71
2022/09/12 06:57:37;;;;;;;10.32;2.40;;;15.10;76.70;;;;;;5091838;28;20039;-72
2022/09/12 07:00:08;;;;;;;4.65;3.10;;;15.20;76.70;;;;;;5096888;28;20028;-70
2022/09/12 07:02:34;;;;;;;5.80;2.65;;;15.20;76.70;;;;;;5094607;28;20086;-71
2022/09/12 07:05:00;;;;;;;7.28;2.50;;;15.30;76.80;;;;;;5098869;28;20069;-71
2022/09/12 07:07:27;;;;;;;7.65;2.67;;;15.30;76.80;;;;;;5095538;28;20365;-70
2022/09/12 07:09:56;;;;;;;12.00;3.88;;;15.30;76.70;;;;;;5094075;28;20636;-71
2022/09/12 07:12:22;;;;;;;10.25;2.95;;;15.40;77.30;;;;;;5093352;28;20020;-70
2022/09/12 07:14:49;;;;;;;8.73;2.95;;;15.40;77.20;;;;;;5092551;28;20036;-69
2022/09/12 07:17:15;;;;;;;6.05;2.60;;;15.50;77.10;;;;;;5084933;28;20035;-71
2022/09/12 07:19:42;;;;;;;6.85;3.53;;;15.50;76.80;;;;;;5082793;28;20013;-70
2022/09/12 07:22:08;;;;;;;5.78;2.53;;;15.50;76.50;;;;;;5080956;28;20379;-71
2022/09/12 07:24:36;;;;;;;9.82;2.80;;;15.50;76.30;;;;;;5085309;28;20535;-71
2022/09/12 07:27:02;;;;;;;6.63;3.00;;;15.50;76.10;;;;;;5079538;28;20063;-70
2022/09/12 07:29:29;;;;;;;8.57;3.88;;;15.50;76.00;;;;;;5084379;28;20018;-71
2022/09/12 07:31:55;;;;;;;11.20;3.80;;;15.60;76.10;;;;;;5085896;28;20020;-71
2022/09/12 07:34:22;;;;;;;5.10;2.78;;;15.60;76.30;;;;;;5085754;28;20012;-70
2022/09/12 07:36:48;;;;;;;8.38;2.78;;;15.60;76.20;;;;;;5083026;28;20024;-71
2022/09/12 07:39:15;;;;;;;1.88;1.25;;;15.70;76.20;;;;;;5080432;28;20025;-71
2022/09/12 07:41:41;;;;;;;5.63;1.52;;;15.70;75.90;;;;;;5086794;28;20016;-70
2022/09/12 07:44:07;;;;;;;3.58;1.13;;;15.70;75.60;;;;;;5083247;28;20029;-69
2022/09/12 07:46:34;;;;;;;2.45;1.05;;;15.80;75.30;;;;;;5084853;28;20073;-71
2022/09/12 07:49:01;;;;;;;2.05;0.82;;;15.80;74.90;;;;;;5083635;28;20489;-70
2022/09/12 07:51:29;;;;;;;0.98;0.60;;;15.90;74.40;;;;;;5084923;28;20475;-70
2022/09/12 07:53:56;;;;;;;3.38;1.08;;;15.90;73.80;;;;;;5082624;28;20088;-72
2022/09/12 07:56:24;;;;;;;2.22;1.33;;;15.90;73.40;;;;;;5087960;28;20013;-71
2022/09/12 07:58:50;;;;;;;3.22;1.38;;;16.00;73.40;;;;;;5089184;28;20466;-71
2022/09/12 08:01:19;;;;;;;7.90;1.10;;;16.10;73.10;;;;;;5081813;28;20077;-70
2022/09/12 08:03:48;;;;;;;2.10;1.13;;;16.20;73.00;;;;;;5088913;28;20034;-70
2022/09/12 08:06:20;;;;;;;2.10;1.20;;;16.20;72.40;;;;;;5082893;28;20028;-70
2022/09/12 08:08:47;;;;;;;5.45;1.65;;;16.20;71.80;;;;;;5085013;28;20024;-72
2022/09/12 08:11:16;;;;;;;16.75;1.90;;;16.20;71.60;;;;;;5082862;28;20028;-70
2022/09/12 08:13:43;;;;;;;11.70;1.85;;;16.30;71.90;;;;;;5084655;28;20049;-70
2022/09/12 08:16:16;;;;;;;3.55;0.90;;;16.30;71.80;;;;;;5085170;28;20382;-70
2022/09/12 08:18:43;;;;;;;4.07;0.85;;;16.40;71.30;;;;;;5082949;28;20028;-71
2022/09/12 08:21:15;;;;;;;4.80;0.80;;;16.50;70.40;;;;;;5084302;28;20482;-70
2022/09/12 08:23:42;;;;;;;5.88;0.85;;;16.50;69.10;;;;;;5085217;28;20033;-70
2022/09/12 08:26:10;;;;;;;3.15;0.60;;;16.50;68.30;;;;;;5083036;28;20021;-70
2022/09/12 08:28:40;;;;;;;3.90;0.70;;;16.60;67.90;;;;;;5082745;28;20378;-70
2022/09/12 08:31:13;;;;;;;4.35;1.45;;;16.70;67.70;;;;;;5083152;28;20028;-70
2022/09/12 08:33:39;;;;;;;4.47;0.50;;;16.70;67.50;;;;;;5078482;28;20017;-71
2022/09/12 08:36:15;;;;;;;2.53;0.45;;;16.80;67.40;;;;;;5084143;28;20028;-71
2022/09/12 08:38:44;;;;;;;3.25;0.90;;;16.80;66.80;;;;;;5086255;28;20111;-71
2022/09/12 08:41:46;;;;;;;5.85;1.17;;;16.80;66.50;;;;;;5086776;28;20054;-70
2022/09/12 08:44:47;;;;;;;0.88;0.60;;;16.90;66.40;;;;;;5080584;28;20081;-70
2022/09/12 08:47:26;;;;;;;0.85;0.60;;;16.90;65.40;;;;;;5083152;28;20080;-70
2022/09/12 08:50:10;;;;;;;3.53;0.60;;;17.00;63.80;;;;;;5085790;28;20665;-70
2022/09/12 08:52:48;;;;;;;2.50;1.55;;;17.00;63.70;;;;;;5081147;28;20021;-70
2022/09/12 08:55:32;;;;;;;3.53;0.55;;;17.10;64.10;;;;;;5088702;28;20038;-71
2022/09/12 08:58:22;;;;;;;1.05;0.55;;;17.10;64.40;;;;;;5083981;28;20464;-70
2022/09/12 09:01:06;;;;;;;1.02;0.50;;;17.20;65.00;;;;;;5081682;28;20020;-70
2022/09/12 09:04:03;;;;;;;2.85;0.88;;;17.20;64.90;;;;;;5084888;28;20029;-70
2022/09/12 09:06:58;;;;;;;5.10;0.70;;;17.30;64.70;;;;;;5079422;28;20462;-71
2022/09/12 09:09:37;;;;;;;7.68;1.20;;;17.40;64.50;;;;;;5083459;28;20067;-70
2022/09/12 09:12:23;;;;;;;4.43;0.88;;;17.40;64.80;;;;;;5081136;28;20115;-70
2022/09/12 09:15:08;;;;;;;6.95;1.50;;;17.40;65.10;;;;;;5078889;28;20044;-70
2022/09/12 09:17:45;;;;;;;4.10;0.80;;;17.50;65.10;;;;;;5081873;28;20509;-70
2022/09/12 09:20:52;;;;;;;3.15;0.63;;;17.50;64.50;;;;;;5082748;28;20110;-71
2022/09/12 09:23:35;;;;;;;3.10;0.95;;;17.60;64.40;;;;;;5081289;28;20028;-70
2022/09/12 09:26:10;;;;;;;2.08;0.52;;;17.60;63.50;;;;;;5080232;28;20028;-70
2022/09/12 09:28:45;;;;;;;1.35;0.43;;;17.60;63.40;;;;;;5087680;28;20021;-71
2022/09/12 09:31:14;;;;;;;;;;;17.70;63.70;;;;;;5081712;28;20036;-70
2022/09/12 09:33:41;;;;;;;3.28;0.47;;;17.80;63.40;;;;;;5081014;28;19915;-71
2022/09/12 09:36:48;;;;;;;5.40;0.70;;;17.90;63.50;;;;;;5081648;28;20081;-70
2022/09/12 09:39:27;;;;;;;3.88;0.73;;;17.90;63.20;;;;;;5086133;28;20020;-71
2022/09/12 09:42:35;;;;;;;1.15;0.50;;;18.00;62.90;;;;;;5082055;28;20499;-71
2022/09/12 09:45:13;;;;;;;1.15;0.77;;;18.00;62.70;;;;;;5022609;28;20038;-70
2022/09/12 09:47:39;;;;;;;1.77;0.60;;;18.10;62.00;;;;;;5027202;28;20029;-70
2022/09/12 09:50:11;;;;;;;0.30;0.30;;;18.20;62.10;;;;;;5053701;28;20044;-70
2022/09/12 09:52:38;;;;;;;1.05;0.60;;;18.20;61.00;;;;;;5082226;28;20422;-71
2022/09/12 09:55:11;;;;;;;3.17;0.40;;;18.20;61.20;;;;;;5082666;28;20461;-69
2022/09/12 09:57:40;;;;;;;2.30;0.55;;;18.30;61.20;;;;;;5077886;28;20391;-69
2022/09/12 10:00:25;;;;;;;1.25;0.57;;;18.30;60.10;;;;;;5082479;28;20378;-69
2022/09/12 10:03:08;;;;;;;3.00;0.68;;;18.40;60.20;;;;;;5084206;28;20020;-69
2022/09/12 10:06:20;;;;;;;3.58;0.68;;;18.50;60.70;;;;;;5082912;28;20090;-70
2022/09/12 10:08:48;;;;;;;1.55;0.77;;;18.50;60.60;;;;;;5078466;28;20126;-70
2022/09/12 10:11:28;;;;;;;2.05;0.52;;;18.60;60.60;;;;;;5083426;28;20054;-68
2022/09/12 10:13:56;;;;;;;0.70;0.40;;;18.70;60.20;;;;;;5079540;28;20052;-69
2022/09/12 10:16:28;;;;;;;5.78;0.73;;;18.80;60.40;;;;;;5079919;28;20024;-70
2022/09/12 10:18:57;;;;;;;3.38;0.70;;;18.80;60.40;;;;;;5080513;28;20102;-69
2022/09/12 10:21:36;;;;;;;7.68;1.05;;;18.90;60.20;;;;;;5083798;28;20107;-70
2022/09/12 10:24:18;;;;;;;2.55;0.50;;;19.00;59.80;;;;;;5080396;28;20417;-70
2022/09/12 10:26:53;;;;;;;0.95;0.47;;;19.00;58.80;;;;;;5078470;28;20047;-70
2022/09/12 10:29:30;;;;;;;2.88;1.00;;;19.10;58.70;;;;;;5081846;28;20020;-71
2022/09/12 10:32:00;;;;;;;1.40;0.60;;;19.10;58.70;;;;;;5079932;28;20093;-70
2022/09/12 10:34:44;;;;;;;0.88;0.45;;;19.10;58.60;;;;;;5079772;28;20020;-70
2022/09/12 10:37:27;;;;;;;2.28;0.55;;;19.10;58.20;;;;;;5084929;28;20024;-69
2022/09/12 10:39:57;;;;;;;2.30;0.60;;;19.20;57.70;;;;;;5082318;28;20016;-71
2022/09/12 10:42:49;;;;;;;1.60;0.57;;;19.30;57.90;;;;;;5068974;28;20478;-70
2022/09/12 10:45:30;;;;;;;1.40;0.98;;;19.30;57.60;;;;;;5082002;28;20151;-71
2022/09/12 10:48:03;;;;;;;3.30;0.85;;;19.30;57.40;;;;;;5081124;28;20028;-70
2022/09/12 10:50:31;;;;;;;2.40;0.70;;;19.40;57.50;;;;;;5087418;28;20133;-70
2022/09/12 10:53:19;;;;;;;1.20;0.40;;;19.40;57.10;;;;;;5085912;28;20103;-70
2022/09/12 10:56:11;;;;;;;2.58;0.52;;;19.50;57.20;;;;;;5087524;28;20017;-71
2022/09/12 10:58:43;;;;;;;6.68;0.93;;;19.50;57.30;;;;;;5039743;28;20028;-70
2022/09/12 11:01:31;;;;;;;0.73;0.40;;;19.60;57.00;;;;;;5085025;28;20035;-70
2022/09/12 11:04:07;;;;;;;0.70;0.22;;;19.60;56.80;;;;;;5087523;28;20028;-71
2022/09/12 11:07:12;;;;;;;1.92;0.57;;;19.70;56.20;;;;;;5082418;28;20017;-71
2022/09/12 11:09:53;;;;;;;5.43;1.08;;;19.70;56.20;;;;;;5084262;28;20107;-69
2022/09/12 11:12:40;;;;;;;4.45;0.40;;;19.80;55.80;;;;;;5085009;28;20064;-69
2022/09/12 11:15:35;;;;;;;1.60;0.70;;;19.90;55.60;;;;;;5086394;28;20131;-69
2022/09/12 11:18:39;;;;;;;1.00;0.47;;;19.90;55.60;;;;;;5086371;28;20038;-69
2022/09/12 11:21:47;;;;;;;2.78;0.60;;;20.00;55.30;;;;;;5081227;28;20131;-69
2022/09/12 11:24:52;;;;;;;5.55;0.77;;;20.10;54.80;;;;;;5081105;28;20439;-69
2022/09/12 11:28:07;;;;;;;5.05;0.60;;;20.10;54.90;;;;;;5089868;28;20029;-69
2022/09/12 11:31:12;;;;;;;5.40;1.30;;;20.20;54.90;;;;;;5079863;28;20059;-68
2022/09/12 11:34:27;;;;;;;3.20;0.60;;;20.20;54.30;;;;;;5077079;28;20131;-69
2022/09/12 11:37:22;;;;;;;2.17;0.30;;;20.30;54.60;;;;;;5089619;28;20392;-69
2022/09/12 11:40:17;;;;;;;2.00;0.93;;;20.30;54.30;;;;;;5079306;28;20120;-69
2022/09/12 11:43:09;;;;;;;0.75;0.50;;;20.30;54.00;;;;;;5078952;28;20035;-70
2022/09/12 11:45:52;;;;;;;1.23;0.60;;;20.30;53.50;;;;;;5081007;28;20033;-69
2022/09/12 11:48:27;;;;;;;1.15;0.50;;;20.40;53.70;;;;;;5087357;28;20051;-69
2022/09/12 11:50:54;;;;;;;1.23;0.50;;;20.50;53.40;;;;;;5080671;28;20028;-69
2022/09/12 11:53:28;;;;;;;2.30;0.60;;;20.50;53.60;;;;;;5078493;28;20077;-69
2022/09/12 11:56:12;;;;;;;2.83;0.50;;;20.50;53.50;;;;;;5079575;28;20021;-68
2022/09/12 11:58:42;;;;;;;2.10;0.30;;;20.50;54.00;;;;;;5078373;28;20074;-68
2022/09/12 12:01:27;;;;;;;2.97;0.50;;;20.60;53.20;;;;;;5078524;28;20032;-68
2022/09/12 14:22:01;;;;;;;4.03;1.08;;;20.40;55.30;;;;;;6042837;22;2721631;-71
2022/09/12 14:24:28;;;;;;;0.65;0.40;;;20.50;54.90;;;;;;6157481;23;20009;-70
2022/09/12 14:26:55;;;;;;;0.57;0.22;;;20.50;54.60;;;;;;6157668;23;20037;-71
2022/09/12 14:29:24;;;;;;;0.93;0.45;;;20.50;54.40;;;;;;6132165;23;20041;-71
2022/09/12 14:32:04;;;;;;;1.13;0.40;;;20.60;54.30;;;;;;6156383;23;20001;-71
2022/09/12 14:34:31;;;;;;;2.05;0.40;;;20.50;54.00;;;;;;6158332;23;20420;-70
2022/09/12 14:36:58;;;;;;;1.65;0.73;;;20.60;54.60;;;;;;6156382;23;20009;-71
2022/09/12 14:39:41;;;;;;;2.10;0.47;;;20.60;54.00;;;;;;6131122;23;20016;-69
2022/09/12 14:42:20;;;;;;;6.03;1.02;;;20.50;54.60;;;;;;6157691;23;20428;-68
2022/09/12 14:45:09;;;;;;;6.18;3.78;;;20.60;55.90;;;;;;6159433;23;20072;-70
2022/09/12 14:47:41;;;;;;;3.40;1.45;;;20.50;55.70;;;;;;6158846;23;20097;-68
2022/09/12 14:50:23;;;;;;;2.53;0.65;;;20.50;53.20;;;;;;6157198;23;20002;-68
2022/09/12 14:53:30;;;;;;;3.30;0.80;;;20.40;54.00;;;;;;6157738;23;20044;-69
2022/09/12 14:56:05;;;;;;;3.80;0.43;;;20.40;55.30;;;;;;6101134;23;20448;-68
2022/09/12 14:58:32;;;;;;;;;;;20.30;55.30;;;;;;6156415;23;20043;-70
2022/09/12 15:01:06;;;;;;;1.45;0.65;;;20.30;54.90;;;;;;6158633;23;19901;-68
2022/09/12 15:03:35;;;;;;;0.77;0.40;;;20.30;54.90;;;;;;6157658;23;20377;-68
2022/09/12 15:06:03;;;;;;;1.08;0.30;;;20.30;54.60;;;;;;6158494;23;20024;-70
2022/09/12 15:08:31;;;;;;;4.18;0.60;;;20.20;55.00;;;;;;6158153;23;20014;-67
2022/09/12 15:10:59;;;;;;;102.75;88.78;;;20.20;54.50;;;;;;6157840;23;20052;-67
2022/09/12 15:13:27;;;;;;;42.20;29.15;;;20.20;54.30;;;;;;6158660;23;20001;-69
2022/09/12 15:16:08;;;;;;;9.60;4.43;;;20.20;54.20;;;;;;6153322;23;20006;-68
2022/09/12 15:18:34;;;;;;;0.95;0.60;;;20.10;53.90;;;;;;6153855;23;20001;-68
2022/09/12 15:21:04;;;;;;;2.85;0.45;;;20.00;53.90;;;;;;6149032;23;20254;-68
2022/09/12 15:23:31;;;;;;;3.28;0.60;;;19.90;54.30;;;;;;6122189;23;20828;-69
2022/09/12 15:25:58;;;;;;;1.88;0.38;;;19.80;54.70;;;;;;6149911;23;20009;-70
2022/09/12 15:28:25;;;;;;;1.00;0.30;;;19.80;55.10;;;;;;6149337;23;20013;-70
2022/09/12 15:30:54;;;;;;;2.70;0.50;;;19.70;54.90;;;;;;6150976;23;20033;-69
2022/09/12 15:33:23;;;;;;;3.35;1.25;;;19.60;54.80;;;;;;6149945;23;20012;-67
2022/09/12 15:35:51;;;;;;;6.32;3.35;;;19.60;55.20;;;;;;6150490;23;20005;-69
2022/09/12 15:38:17;;;;;;;4.90;4.47;;;19.50;55.60;;;;;;6148964;23;20025;-68
2022/09/12 15:40:51;;;;;;;3.38;2.45;;;19.40;55.80;;;;;;6151182;23;20029;-69
2022/09/12 15:43:18;;;;;;;1.67;0.82;;;19.40;55.90;;;;;;6150218;23;20022;-69
2022/09/12 15:45:46;;;;;;;0.63;0.63;;;19.30;56.20;;;;;;6148808;23;20393;-69
2022/09/12 15:48:12;;;;;;;0.50;0.50;;;19.30;56.50;;;;;;6149145;23;20014;-69
2022/09/12 15:50:41;;;;;;;1.55;0.43;;;19.30;56.00;;;;;;6148720;23;20001;-68
2022/09/12 15:53:14;;;;;;;1.02;0.60;;;19.20;56.00;;;;;;6150354;23;20009;-67
2022/09/12 15:55:41;;;;;;;1.73;0.68;;;19.10;56.50;;;;;;6150856;23;19997;-72
2022/09/12 15:58:11;;;;;;;3.67;0.70;;;19.10;57.70;;;;;;6150930;23;19997;-66
2022/09/12 16:00:38;;;;;;;0.85;0.50;;;19.10;58.20;;;;;;6150449;23;19998;-69
2022/09/12 16:03:05;;;;;;;12.00;8.88;;;19.00;57.60;;;;;;6150252;23;20110;-69
2022/09/12 16:05:32;;;;;;;12.13;6.88;;;19.00;58.00;;;;;;6125234;23;20001;-70
2022/09/12 16:07:58;;;;;;;7.90;3.25;;;19.00;58.30;;;;;;6147297;23;20017;-71
2022/09/12 16:10:28;;;;;;;6.38;2.45;;;19.00;58.70;;;;;;6151615;23;20556;-70
2022/09/12 16:12:55;;;;;;;4.32;1.75;;;19.00;59.00;;;;;;6149652;23;20064;-70
2022/09/12 16:15:24;;;;;;;7.35;1.13;;;19.10;59.30;;;;;;6150949;23;20005;-70
2022/09/12 16:17:51;;;;;;;5.97;1.00;;;19.10;59.30;;;;;;6123648;23;20108;-70
2022/09/12 16:20:18;;;;;;;6.88;1.40;;;19.10;59.30;;;;;;6149516;23;20033;-71
2022/09/12 16:22:45;;;;;;;6.30;1.20;;;19.10;59.60;;;;;;6150551;23;20001;-70
2022/09/12 16:25:11;;;;;;;4.97;0.80;;;19.00;59.80;;;;;;6147576;23;20064;-69
2022/09/12 16:27:38;;;;;;;6.30;0.45;;;19.10;60.40;;;;;;6149806;23;20010;-67
2022/09/12 16:30:06;;;;;;;9.57;1.20;;;19.10;60.80;;;;;;6148421;23;20005;-70
2022/09/12 16:32:33;;;;;;;3.63;0.98;;;19.00;60.70;;;;;;6122434;23;20009;-70
2022/09/12 16:35:00;;;;;;;4.22;1.25;;;19.00;61.00;;;;;;6148234;23;20310;-72
2022/09/12 16:37:26;;;;;;;4.20;1.23;;;18.90;60.90;;;;;;6148958;23;20413;-69
2022/09/12 16:39:52;;;;;;;4.25;1.20;;;19.00;61.30;;;;;;6149617;23;20056;-70
2022/09/12 16:42:19;;;;;;;3.97;0.90;;;18.90;61.50;;;;;;6148802;23;20001;-69
2022/09/12 16:44:46;;;;;;;6.70;1.25;;;18.90;61.30;;;;;;6149908;23;19998;-68
2022/09/12 16:47:13;;;;;;;3.03;1.25;;;18.90;61.20;;;;;;6146687;23;20363;-69
2022/09/12 16:49:40;;;;;;;3.05;1.67;;;18.90;61.00;;;;;;6149043;23;20033;-68
2022/09/12 16:52:07;;;;;;;8.23;2.08;;;18.90;61.00;;;;;;6147985;23;20009;-70
2022/09/12 16:54:34;;;;;;;3.28;1.70;;;18.90;61.20;;;;;;6147210;23;20001;-70
2022/09/12 16:57:01;;;;;;;7.43;2.83;;;18.80;61.20;;;;;;6147583;23;20001;-68
2022/09/12 16:59:27;;;;;;;2.20;1.02;;;18.80;61.40;;;;;;6147363;23;20029;-69
2022/09/12 17:01:54;;;;;;;4.05;1.45;;;18.80;61.40;;;;;;6151096;23;20005;-70
2022/09/12 17:04:20;;;;;;;5.60;3.45;;;18.70;61.60;;;;;;6148337;23;20325;-71
2022/09/12 17:06:47;;;;;;;11.05;3.88;;;18.70;62.10;;;;;;6147683;23;20806;-70
2022/09/12 17:09:17;;;;;;;8.57;2.80;;;18.70;63.00;;;;;;6145783;23;19997;-70
2022/09/12 17:11:46;;;;;;;6.50;2.05;;;18.70;63.20;;;;;;6147260;23;20001;-70
2022/09/12 17:14:13;;;;;;;17.75;1.98;;;18.80;63.00;;;;;;6146476;23;19998;-69
2022/09/12 17:16:45;;;;;;;6.22;1.23;;;18.70;62.90;;;;;;6146989;23;20001;-70
2022/09/12 17:19:17;;;;;;;8.23;2.85;;;18.70;63.40;;;;;;6147462;23;20337;-71
2022/09/12 17:21:47;;;;;;;9.35;1.52;;;18.70;63.70;;;;;;6146133;23;20014;-71
2022/09/12 17:24:13;;;;;;;4.43;1.42;;;18.60;63.80;;;;;;6145664;23;20013;-72
2022/09/12 17:26:40;;;;;;;4.70;1.33;;;18.70;64.20;;;;;;6146352;23;20101;-70
2022/09/12 17:29:07;;;;;;;9.15;1.58;;;18.60;64.20;;;;;;6146169;23;20005;-73
2022/09/12 17:31:34;;;;;;;4.47;1.80;;;18.60;64.40;;;;;;6148956;23;20025;-68
2022/09/12 17:34:01;;;;;;;12.23;6.10;;;18.60;64.50;;;;;;6149675;23;19997;-72
2022/09/12 17:36:30;;;;;;;9.52;4.78;;;18.60;64.70;;;;;;6150244;23;20048;-71
2022/09/12 17:38:58;;;;;;;6.35;2.90;;;18.50;64.70;;;;;;6149988;23;20001;-70
2022/09/12 17:41:28;;;;;;;5.93;2.03;;;18.50;64.70;;;;;;6152020;23;20084;-71
2022/09/12 17:43:56;;;;;;;4.57;1.83;;;18.50;64.80;;;;;;6149887;23;20456;-69
2022/09/12 17:46:25;;;;;;;2.17;1.38;;;18.50;64.90;;;;;;6150336;23;20025;-72
2022/09/12 17:48:56;;;;;;;4.43;1.40;;;18.40;64.90;;;;;;6149675;23;20399;-72
2022/09/12 17:51:25;;;;;;;2.72;1.15;;;18.40;65.00;;;;;;6150734;23;20001;-70